createdAt,value
2022-09-04T00:02:44.589Z,7.47
2022-09-04T00:05:27.994Z,7.63
2022-09-04T00:08:12.087Z,7.07
2022-09-04T00:10:44.408Z,7.63
2022-09-04T00:13:35.378Z,6.40
2022-09-04T00:16:15.255Z,6.60
2022-09-04T00:18:56.163Z,6.35
2022-09-04T00:21:50.710Z,5.97
2022-09-04T00:24:31.860Z,7.43
2022-09-04T00:27:10.914Z,7.30
2022-09-04T00:30:05.070Z,6.78
2022-09-04T00:32:50.003Z,6.07
2022-09-04T00:35:26.983Z,6.28
2022-09-04T00:38:32.635Z,5.90
2022-09-04T00:41:07.327Z,5.80
2022-09-04T00:43:55.235Z,5.35
2022-09-04T00:46:45.149Z,5.57
2022-09-04T00:49:37.864Z,5.80
2022-09-04T00:52:36.576Z,6.10
2022-09-04T00:55:16.731Z,6.28
2022-09-04T00:57:59.530Z,6.80
2022-09-04T01:00:29.211Z,6.68
2022-09-04T01:03:24.235Z,6.60
2022-09-04T01:05:57.694Z,6.35
2022-09-04T01:08:46.870Z,7.03
2022-09-04T01:11:45.225Z,6.38
2022-09-04T01:14:23.105Z,5.75
2022-09-04T01:17:26.196Z,6.20
2022-09-04T01:19:58.478Z,7.15
2022-09-04T01:22:53.258Z,6.70
2022-09-04T01:25:33.943Z,6.80
2022-09-04T01:28:05.220Z,6.90
2022-09-04T01:30:44.499Z,7.03
2022-09-04T01:33:27.275Z,5.80
2022-09-04T01:36:33.660Z,6.22
2022-09-04T01:39:02.860Z,6.00
2022-09-04T01:41:40.298Z,6.18
2022-09-04T01:44:10.544Z,6.47
2022-09-04T01:46:53.354Z,5.57
2022-09-04T01:49:58.018Z,6.05
2022-09-04T01:52:46.598Z,6.00
2022-09-04T01:55:24.340Z,7.35
2022-09-04T01:58:02.291Z,6.43
2022-09-04T02:00:35.225Z,5.93
2022-09-04T02:03:33.715Z,5.72
2022-09-04T02:06:10.996Z,5.68
2022-09-04T02:08:55.972Z,6.53
2022-09-04T02:11:33.159Z,6.55
2022-09-04T02:14:23.050Z,5.28
2022-09-04T02:17:22.461Z,6.53
2022-09-04T02:20:31.009Z,6.75
2022-09-04T02:23:30.303Z,5.93
2022-09-04T02:26:12.642Z,6.85
2022-09-04T02:28:55.401Z,6.80
2022-09-04T02:31:49.384Z,6.50
2022-09-04T02:34:50.474Z,6.13
2022-09-04T02:37:55.615Z,7.00
2022-09-04T02:40:55.472Z,6.57
2022-09-04T02:44:01.982Z,6.95
2022-09-04T02:46:47.796Z,6.05
2022-09-04T02:49:41.955Z,6.85
2022-09-04T02:52:56.641Z,7.47
2022-09-04T02:55:57.825Z,7.72
2022-09-04T02:58:40.008Z,14.70
2022-09-04T03:01:29.263Z,14.30
2022-09-04T03:04:39.162Z,14.77
2022-09-04T03:07:12.510Z,8.98
2022-09-04T03:10:13.802Z,9.20
2022-09-04T03:12:53.683Z,8.52
2022-09-04T03:15:27.987Z,6.32
2022-09-04T03:18:17.072Z,7.78
2022-09-04T03:21:02.071Z,29.38
2022-09-04T03:23:55.387Z,8.10
2022-09-04T03:26:43.972Z,6.75
2022-09-04T03:29:15.248Z,8.27
2022-09-04T03:32:16.076Z,6.70
2022-09-04T03:34:50.053Z,6.50
2022-09-04T03:37:57.158Z,6.80
2022-09-04T03:43:23.490Z,6.78
2022-09-04T03:46:27.756Z,5.80
2022-09-04T03:49:20.597Z,11.07
2022-09-04T03:52:13.985Z,6.80
2022-09-04T03:54:58.905Z,6.35
2022-09-04T03:57:29.270Z,6.28
2022-09-04T04:00:20.586Z,7.18
2022-09-04T04:02:57.012Z,7.75
2022-09-04T04:05:40.551Z,7.72
2022-09-04T04:08:27.912Z,6.15
2022-09-04T04:11:05.452Z,6.43
2022-09-04T04:13:57.675Z,8.27
2022-09-04T04:16:40.779Z,7.80
2022-09-04T04:19:17.199Z,7.18
2022-09-04T04:22:05.334Z,7.68
2022-09-04T04:24:54.492Z,8.02
2022-09-04T04:27:28.621Z,7.30
2022-09-04T04:30:06.935Z,7.65
2022-09-04T04:32:52.245Z,7.65
2022-09-04T04:35:54.950Z,8.43
2022-09-04T04:38:28.414Z,9.40
2022-09-04T04:41:53.593Z,7.60
2022-09-04T04:44:50.314Z,7.45
2022-09-04T04:47:25.806Z,7.78
2022-09-04T04:50:27.855Z,9.95
2022-09-04T04:52:59.719Z,7.90
2022-09-04T04:55:50.744Z,9.85
2022-09-04T04:58:28.202Z,9.00
2022-09-04T05:01:06.384Z,8.13
2022-09-04T05:03:59.152Z,8.55
2022-09-04T05:06:38.860Z,9.05
2022-09-04T05:09:26.105Z,8.90
2022-09-04T05:12:02.479Z,8.77
2022-09-04T05:14:39.867Z,8.18
2022-09-04T05:17:35.525Z,8.65
2022-09-04T05:22:46.982Z,8.20
2022-09-04T05:25:40.424Z,8.02
2022-09-04T05:28:36.132Z,7.07
2022-09-04T05:34:10.760Z,7.68
2022-09-04T05:36:58.495Z,7.50
2022-09-04T05:39:31.161Z,7.93
2022-09-04T05:42:20.404Z,7.90
2022-09-04T05:45:05.902Z,7.38
2022-09-04T05:47:49.018Z,7.57
2022-09-04T05:50:47.789Z,7.88
2022-09-04T05:53:48.450Z,8.13
2022-09-04T05:56:34.238Z,7.75
2022-09-04T05:59:28.978Z,7.65
2022-09-04T06:01:59.825Z,7.70
2022-09-04T06:04:58.314Z,7.53
2022-09-04T06:07:56.153Z,8.20
2022-09-04T06:10:38.403Z,7.53
2022-09-04T06:13:33.264Z,7.70
2022-09-04T06:16:14.198Z,8.05
2022-09-04T06:18:53.532Z,7.95
2022-09-04T06:21:43.207Z,6.80
2022-09-04T06:24:34.952Z,6.57
2022-09-04T06:27:24.600Z,7.93
2022-09-04T06:30:06.635Z,7.35
2022-09-04T06:32:49.497Z,7.22
2022-09-04T06:35:51.865Z,6.20
2022-09-04T06:38:26.688Z,5.82
2022-09-04T06:43:55.992Z,5.32
2022-09-04T06:46:39.683Z,4.28
2022-09-04T06:49:22.149Z,5.03
2022-09-04T06:52:20.447Z,4.88
2022-09-04T06:55:11.626Z,4.75
2022-09-04T06:58:26.087Z,4.13
2022-09-04T07:01:08.774Z,3.95
2022-09-04T07:03:59.244Z,4.63
2022-09-04T07:06:36.324Z,4.32
2022-09-04T07:09:23.638Z,5.18
2022-09-04T07:12:20.896Z,5.03
2022-09-04T07:15:22.626Z,5.07
2022-09-04T07:18:09.318Z,4.90
2022-09-04T07:20:51.475Z,4.72
2022-09-04T07:23:25.228Z,4.13
2022-09-04T07:26:20.981Z,4.57
2022-09-04T07:29:12.476Z,4.20
2022-09-04T07:32:11.217Z,4.60
2022-09-04T07:35:16.365Z,5.10
2022-09-04T07:37:50.413Z,4.20
2022-09-04T07:40:39.587Z,4.53
2022-09-04T07:43:35.315Z,3.88
2022-09-04T07:46:35.708Z,3.95
2022-09-04T07:49:16.109Z,3.78
2022-09-04T07:51:54.908Z,4.95
2022-09-04T07:54:48.838Z,3.50
2022-09-04T07:57:39.636Z,3.63
2022-09-04T08:00:18.500Z,4.20
2022-09-04T08:03:15.630Z,3.95
2022-09-04T08:05:50.157Z,3.53
2022-09-04T08:08:44.561Z,3.63
2022-09-04T08:11:38.954Z,3.63
2022-09-04T08:14:55.097Z,3.92
2022-09-04T08:17:32.064Z,3.92
2022-09-04T08:20:22.001Z,3.53
2022-09-04T08:23:11.253Z,2.80
2022-09-04T08:26:15.224Z,3.15
2022-09-04T08:29:15.199Z,2.95
2022-09-04T08:32:04.248Z,3.38
2022-09-04T08:34:56.160Z,3.53
2022-09-04T08:37:53.208Z,3.38
2022-09-04T08:40:52.082Z,2.97
2022-09-04T08:43:29.381Z,3.47
2022-09-04T08:46:08.875Z,2.90
2022-09-04T08:49:14.135Z,2.88
2022-09-04T08:52:26.889Z,3.33
2022-09-04T08:55:26.607Z,2.70
2022-09-04T08:58:31.570Z,2.70
2022-09-04T09:01:19.003Z,2.30
2022-09-04T09:04:04.643Z,2.45
2022-09-04T09:07:10.441Z,2.30
2022-09-04T09:09:59.547Z,2.20
2022-09-04T09:13:06.301Z,2.80
2022-09-04T09:15:56.587Z,2.53
2022-09-04T09:18:40.650Z,2.60
2022-09-04T09:21:18.113Z,3.08
2022-09-04T09:24:01.110Z,2.85
2022-09-04T09:26:39.398Z,3.00
2022-09-04T09:29:13.533Z,2.75
2022-09-04T09:32:04.019Z,2.70
2022-09-04T09:35:23.569Z,3.22
2022-09-04T09:38:21.548Z,2.78
2022-09-04T09:41:02.586Z,2.97
2022-09-04T09:44:07.855Z,2.90
2022-09-04T09:47:13.988Z,3.15
2022-09-04T09:49:50.784Z,2.92
2022-09-04T09:52:30.713Z,3.25
2022-09-04T09:55:19.470Z,2.90
2022-09-04T09:58:06.425Z,2.88
2022-09-04T10:00:39.122Z,3.13
2022-09-04T10:03:15.935Z,3.30
2022-09-04T10:06:11.934Z,2.83
2022-09-04T10:09:12.568Z,3.15
2022-09-04T10:11:49.588Z,2.83
2022-09-04T10:15:12.977Z,3.00
2022-09-04T10:18:10.718Z,3.17
2022-09-04T10:20:46.389Z,3.35
2022-09-04T10:23:33.186Z,3.10
2022-09-04T10:26:06.702Z,3.15
2022-09-04T10:28:43.094Z,3.05
2022-09-04T10:31:29.288Z,2.90
2022-09-04T10:34:47.000Z,2.92
2022-09-04T10:37:29.926Z,3.03
2022-09-04T10:40:35.633Z,2.78
2022-09-04T10:43:43.421Z,2.80
2022-09-04T10:46:22.905Z,2.85
2022-09-04T10:49:19.199Z,2.55
2022-09-04T10:51:49.885Z,2.78
2022-09-04T10:54:36.381Z,3.00
2022-09-04T10:57:09.367Z,2.75
2022-09-04T10:59:59.264Z,2.47
2022-09-04T11:02:45.568Z,2.60
2022-09-04T11:05:36.586Z,2.40
2022-09-04T11:08:13.918Z,3.13
2022-09-04T11:10:48.698Z,3.40
2022-09-04T11:13:56.782Z,3.22
2022-09-04T11:16:57.298Z,2.95
2022-09-04T11:19:49.150Z,3.20
2022-09-04T11:22:35.201Z,2.75
2022-09-04T11:25:12.942Z,3.90
2022-09-04T11:28:20.582Z,3.35
2022-09-04T11:31:07.180Z,6.25
2022-09-04T11:33:53.882Z,3.35
2022-09-04T11:36:49.467Z,3.42
2022-09-04T11:42:35.991Z,3.17
2022-09-04T11:45:41.542Z,3.38
2022-09-04T11:48:21.143Z,3.67
2022-09-04T11:51:04.352Z,3.20
2022-09-04T11:54:02.578Z,3.47
2022-09-04T11:57:14.001Z,3.92
2022-09-04T12:00:03.111Z,4.18
2022-09-04T12:02:47.692Z,4.00
2022-09-04T12:05:44.035Z,4.10
2022-09-04T12:08:31.655Z,4.13
2022-09-04T12:11:10.550Z,4.57
2022-09-04T12:14:04.615Z,3.72
2022-09-04T12:16:56.295Z,4.20
2022-09-04T12:19:50.525Z,4.80
2022-09-04T12:22:36.967Z,4.30
2022-09-04T12:25:10.982Z,4.32
2022-09-04T12:28:03.873Z,4.85
2022-09-04T12:30:41.350Z,4.70
2022-09-04T12:33:27.350Z,5.57
2022-09-04T12:36:00.903Z,6.03
2022-09-04T12:38:49.749Z,5.88
2022-09-04T12:41:36.395Z,5.70
2022-09-04T12:44:18.808Z,6.50
2022-09-04T12:47:26.025Z,6.97
2022-09-04T12:50:18.714Z,6.63
2022-09-04T12:52:52.617Z,7.03
2022-09-04T12:55:23.516Z,6.40
2022-09-04T12:58:25.299Z,6.63
2022-09-04T13:01:34.594Z,6.72
2022-09-04T13:04:44.667Z,6.75
2022-09-04T13:07:48.035Z,6.68
2022-09-04T13:10:45.837Z,6.35
2022-09-04T13:13:34.496Z,7.20
2022-09-04T13:16:55.239Z,7.80
2022-09-04T13:19:40.685Z,7.07
2022-09-04T13:22:31.577Z,7.22
2022-09-04T13:25:15.266Z,6.82
2022-09-04T13:27:52.054Z,7.22
2022-09-04T13:30:24.693Z,7.03
2022-09-04T13:32:58.477Z,8.50
2022-09-04T13:36:02.468Z,8.30
2022-09-04T13:39:02.925Z,9.27
2022-09-04T13:42:01.626Z,9.45
2022-09-04T13:44:58.189Z,10.52
2022-09-04T13:47:32.760Z,11.93
2022-09-04T13:50:20.690Z,8.88
2022-09-04T13:53:12.420Z,10.32
2022-09-04T13:55:45.795Z,11.35
2022-09-04T13:58:20.436Z,12.18
2022-09-04T14:00:52.588Z,11.85
2022-09-04T14:03:45.255Z,9.63
2022-09-04T14:06:16.942Z,11.85
2022-09-04T14:09:04.471Z,10.45
2022-09-04T14:11:50.971Z,9.80
2022-09-04T14:14:49.102Z,8.70
2022-09-04T14:17:26.924Z,7.05
2022-09-04T14:20:11.067Z,6.18
2022-09-04T14:22:49.549Z,5.80
2022-09-04T14:25:30.720Z,5.53
2022-09-04T14:28:30.143Z,4.82
2022-09-04T14:31:16.025Z,4.95
2022-09-04T14:33:57.815Z,5.32
2022-09-04T14:36:54.741Z,5.13
2022-09-04T14:39:44.980Z,5.20
2022-09-04T14:42:22.728Z,5.20
2022-09-04T14:45:18.881Z,5.25
2022-09-04T14:47:55.131Z,5.03
2022-09-04T14:50:28.998Z,5.35
2022-09-04T14:53:01.149Z,4.70
2022-09-04T14:55:32.762Z,4.93
2022-09-04T14:58:23.497Z,4.85
2022-09-04T15:01:20.904Z,5.50
2022-09-04T15:04:07.191Z,4.60
2022-09-04T15:07:09.760Z,5.10
2022-09-04T15:09:43.660Z,5.95
2022-09-04T15:12:24.205Z,4.53
2022-09-04T15:15:03.570Z,5.00
2022-09-04T15:17:32.900Z,4.32
2022-09-04T15:20:09.123Z,4.53
2022-09-04T15:22:39.411Z,4.60
2022-09-04T15:25:08.908Z,5.03
2022-09-04T15:28:00.012Z,4.90
2022-09-04T15:30:40.552Z,4.90
2022-09-04T15:33:20.181Z,5.90
2022-09-04T15:36:08.966Z,5.53
2022-09-04T15:38:38.207Z,5.75
2022-09-04T15:41:29.407Z,6.60
2022-09-04T15:44:13.414Z,5.68
2022-09-04T15:47:11.741Z,6.50
2022-09-04T15:49:39.077Z,6.15
2022-09-04T15:52:24.403Z,6.60
2022-09-04T15:55:11.276Z,6.88
2022-09-04T15:57:59.938Z,5.22
2022-09-04T16:00:29.659Z,8.13
2022-09-04T16:03:13.178Z,8.25
2022-09-04T16:05:45.318Z,6.68
2022-09-04T16:08:23.736Z,9.13
2022-09-04T16:11:22.805Z,6.95
2022-09-04T16:13:51.045Z,7.13
2022-09-04T16:16:32.500Z,6.88
2022-09-04T16:19:12.433Z,7.22
2022-09-04T16:21:59.020Z,7.40
2022-09-04T16:24:35.520Z,7.13
2022-09-04T16:27:08.777Z,7.45
2022-09-04T16:29:47.013Z,7.00
2022-09-04T16:32:22.295Z,7.05
2022-09-04T16:34:58.545Z,6.88
2022-09-04T16:37:32.025Z,6.20
2022-09-04T16:40:19.018Z,6.63
2022-09-04T16:43:12.199Z,6.90
2022-09-04T16:45:51.654Z,6.53
2022-09-04T16:48:38.111Z,8.30
2022-09-04T16:51:46.178Z,7.05
2022-09-04T16:54:35.586Z,6.68
2022-09-04T16:57:15.937Z,7.43
2022-09-04T16:59:50.232Z,7.25
2022-09-04T17:02:43.675Z,6.93
2022-09-04T17:05:35.318Z,7.20
2022-09-04T17:08:16.318Z,6.38
2022-09-04T17:10:53.130Z,7.28
2022-09-04T17:13:28.774Z,6.63
2022-09-04T17:16:24.467Z,8.07
2022-09-04T17:25:24.405Z,9.80
2022-09-04T17:29:14.170Z,10.20
2022-09-04T17:29:16.662Z,7.80
2022-09-04T17:31:28.816Z,7.03
2022-09-04T17:40:38.155Z,6.57
2022-09-04T17:40:54.948Z,6.78
2022-09-04T17:40:55.089Z,7.10
2022-09-04T17:44:02.192Z,7.00
2022-09-04T17:46:30.516Z,7.20
2022-09-04T17:49:01.666Z,7.40
2022-09-04T17:51:35.972Z,7.28
2022-09-04T17:54:13.581Z,7.75
2022-09-04T17:57:03.546Z,7.38
2022-09-04T17:59:45.541Z,6.90
2022-09-04T18:02:26.933Z,7.70
2022-09-04T18:05:03.606Z,7.20
2022-09-04T18:08:07.782Z,7.25
2022-09-04T18:10:35.982Z,7.93
2022-09-04T18:13:36.484Z,7.30
2022-09-04T18:16:35.670Z,6.85
2022-09-04T18:19:42.633Z,7.43
2022-09-04T18:22:46.034Z,7.57
2022-09-04T18:25:25.651Z,7.70
2022-09-04T18:28:15.907Z,7.53
2022-09-04T18:37:07.895Z,7.88
2022-09-04T18:37:24.742Z,7.65
2022-09-04T18:37:45.688Z,7.45
2022-09-04T18:44:29.194Z,7.88
2022-09-04T18:50:21.836Z,8.38
2022-09-04T18:50:28.381Z,8.32
2022-09-04T18:50:33.209Z,8.20
2022-09-04T18:52:30.192Z,7.82
2022-09-04T18:55:08.434Z,7.80
2022-09-04T18:57:50.311Z,7.38
2022-09-04T19:00:59.603Z,7.55
2022-09-04T19:03:41.299Z,7.32
2022-09-04T19:06:19.623Z,7.18
2022-09-04T19:08:51.976Z,7.78
2022-09-04T19:11:27.690Z,7.82
2022-09-04T19:14:09.986Z,7.93
2022-09-04T19:16:49.731Z,7.65
2022-09-04T19:19:36.152Z,8.02
2022-09-04T19:22:16.936Z,8.20
2022-09-04T19:24:51.974Z,7.78
2022-09-04T19:27:31.881Z,7.43
2022-09-04T19:30:18.015Z,7.63
2022-09-04T19:33:00.421Z,7.72
2022-09-04T19:35:43.281Z,7.95
2022-09-04T19:45:02.377Z,8.18
2022-09-04T19:46:09.469Z,8.18
2022-09-04T19:46:17.046Z,8.63
2022-09-04T19:47:28.688Z,8.63
2022-09-04T19:53:17.754Z,7.47
2022-09-04T19:53:38.759Z,8.10
2022-09-04T19:56:26.894Z,7.70
2022-09-04T19:59:05.929Z,8.30
2022-09-04T20:01:45.236Z,7.65
2022-09-04T20:04:41.143Z,8.13
2022-09-04T20:08:07.409Z,7.28
2022-09-04T20:10:45.579Z,8.43
2022-09-04T20:13:27.147Z,7.70
2022-09-04T20:16:04.425Z,8.45
2022-09-04T20:18:39.579Z,8.85
2022-09-04T20:21:20.461Z,8.65
2022-09-04T20:24:11.863Z,8.00
2022-09-04T20:26:43.311Z,8.63
2022-09-04T20:29:27.484Z,7.72
2022-09-04T20:32:02.876Z,8.30
2022-09-04T20:34:57.019Z,7.95
2022-09-04T20:37:45.913Z,8.73
2022-09-04T20:40:27.100Z,8.57
2022-09-04T20:42:56.888Z,9.00
2022-09-04T20:47:46.249Z,7.85
2022-09-04T20:52:51.144Z,8.75
2022-09-04T20:52:55.457Z,8.85
2022-09-04T20:54:28.850Z,8.70
2022-09-04T21:00:41.977Z,8.50
2022-09-04T21:03:13.968Z,8.32
2022-09-04T21:03:20.093Z,8.60
2022-09-04T21:06:11.476Z,8.85
2022-09-04T21:08:49.418Z,9.45
2022-09-04T21:11:40.879Z,9.10
2022-09-04T21:14:27.017Z,13.77
2022-09-04T21:17:33.346Z,13.13
2022-09-04T21:20:11.258Z,9.88
2022-09-04T21:23:16.956Z,9.27
2022-09-04T21:26:18.191Z,9.55
2022-09-04T21:29:11.099Z,9.45
2022-09-04T21:32:26.379Z,9.13
2022-09-04T21:35:40.336Z,9.35
2022-09-04T21:38:32.160Z,9.10
2022-09-04T21:41:13.022Z,9.98
2022-09-04T21:44:03.177Z,9.20
2022-09-04T21:46:52.978Z,9.95
2022-09-04T21:49:38.653Z,9.25
2022-09-04T21:52:27.611Z,9.55
2022-09-04T21:56:49.337Z,10.38
2022-09-04T22:02:35.359Z,9.40
2022-09-04T22:02:40.141Z,9.88
2022-09-04T22:04:09.376Z,9.43
2022-09-04T22:09:02.193Z,9.50
2022-09-04T22:13:28.701Z,11.40
2022-09-04T22:13:42.209Z,10.45
2022-09-04T22:16:29.347Z,9.65
2022-09-04T22:19:31.453Z,9.82
2022-09-04T22:22:08.531Z,10.20
2022-09-04T22:25:17.806Z,10.52
2022-09-04T22:28:13.507Z,9.80
2022-09-04T22:33:30.017Z,10.48
2022-09-04T22:36:06.240Z,10.18
2022-09-04T22:38:52.575Z,11.52
2022-09-04T22:41:44.767Z,10.95
2022-09-04T22:44:43.350Z,11.00
2022-09-04T22:47:44.918Z,11.60
2022-09-04T22:50:48.955Z,12.05
2022-09-04T22:53:38.590Z,11.68
2022-09-04T22:56:24.749Z,10.98
2022-09-04T22:59:20.397Z,13.35
2022-09-04T23:02:20.868Z,13.20
2022-09-04T23:05:14.921Z,12.80
2022-09-04T23:12:23.385Z,13.43
2022-09-04T23:13:57.315Z,13.65
2022-09-04T23:14:17.565Z,14.73
2022-09-04T23:17:29.221Z,14.43
2022-09-04T23:26:13.741Z,13.07
2022-09-04T23:26:49.221Z,13.38
2022-09-04T23:29:26.797Z,12.63
2022-09-04T23:32:22.353Z,13.00
2022-09-04T23:35:14.533Z,13.43
2022-09-04T23:38:03.032Z,12.50
2022-09-04T23:40:47.586Z,13.05
2022-09-04T23:43:38.170Z,14.73
2022-09-04T23:46:18.566Z,13.65
2022-09-04T23:49:06.844Z,12.90
2022-09-04T23:51:55.580Z,14.00
2022-09-04T23:55:00.778Z,14.65
2022-09-04T23:57:51.030Z,15.27
